sensor_id;sensor_type;location;lat;lon;timestamp;pressure;altitude;pressure_sealevel;temperature;humidity
15229;BME280;7717;47.792;12.076;2023-03-04T00:01:12;96541.91;;;0.63;100.00
15229;BME280;7717;47.792;12.076;2023-03-04T00:03:37;96549.69;;;0.48;100.00
15229;BME280;7717;47.792;12.076;2023-03-04T00:06:02;96550.25;;;0.41;100.00
15229;BME280;7717;47.792;12.076;2023-03-04T00:08:28;96549.94;;;0.33;100.00
15229;BME280;7717;47.792;12.076;2023-03-04T00:10:53;96544.91;;;0.33;100.00
15229;BME280;7717;47.792;12.076;2023-03-04T00:13:19;96545.22;;;0.41;100.00
15229;BME280;7717;47.792;12.076;2023-03-04T00:15:46;96538.91;;;0.30;100.00
15229;BME280;7717;47.792;12.076;2023-03-04T00:18:12;96545.25;;;0.22;100.00
15229;BME280;7717;47.792;12.076;2023-03-04T00:20:37;96537.69;;;0.01;100.00
15229;BME280;7717;47.792;12.076;2023-03-04T00:23:03;96545.44;;;-0.14;100.00
15229;BME280;7717;47.792;12.076;2023-03-04T00:25:28;96548.44;;;-0.23;100.00
15229;BME280;7717;47.792;12.076;2023-03-04T00:27:53;96552.13;;;-0.15;100.00
15229;BME280;7717;47.792;12.076;2023-03-04T00:30:19;96547.97;;;-0.14;100.00
15229;BME280;7717;47.792;12.076;2023-03-04T00:32:44;96550.06;;;-0.24;100.00
15229;BME280;7717;47.792;12.076;2023-03-04T00:35:09;96543.41;;;-0.23;100.00
15229;BME280;7717;47.792;12.076;2023-03-04T00:37:35;96549.44;;;-0.20;100.00
15229;BME280;7717;47.792;12.076;2023-03-04T00:40:00;96553.53;;;-0.22;100.00
15229;BME280;7717;47.792;12.076;2023-03-04T00:42:26;96547.38;;;-0.28;100.00
15229;BME280;7717;47.792;12.076;2023-03-04T00:44:51;96548.63;;;-0.38;100.00
15229;BME280;7717;47.792;12.076;2023-03-04T00:47:17;96539.97;;;-0.45;100.00
15229;BME280;7717;47.792;12.076;2023-03-04T00:49:42;96544.09;;;-0.47;100.00
15229;BME280;7717;47.792;12.076;2023-03-04T00:52:07;96548.56;;;-0.40;100.00
15229;BME280;7717;47.792;12.076;2023-03-04T00:54:33;96545.25;;;-0.39;100.00
15229;BME280;7717;47.792;12.076;2023-03-04T00:56:58;96542.75;;;-0.39;100.00
15229;BME280;7717;47.792;12.076;2023-03-04T00:59:24;96548.28;;;-0.46;100.00
15229;BME280;7717;47.792;12.076;2023-03-04T01:01:49;96546.84;;;-0.60;100.00
15229;BME280;7717;47.792;12.076;2023-03-04T01:04:14;96547.38;;;-0.48;100.00
15229;BME280;7717;47.792;12.076;2023-03-04T01:06:40;96548.19;;;-0.29;100.00
15229;BME280;7717;47.792;12.076;2023-03-04T01:09:05;96545.78;;;-0.26;100.00
15229;BME280;7717;47.792;12.076;2023-03-04T01:11:31;96537.84;;;-0.35;100.00
15229;BME280;7717;47.792;12.076;2023-03-04T01:13:56;96545.19;;;-0.40;100.00
15229;BME280;7717;47.792;12.076;2023-03-04T01:16:21;96545.91;;;-0.43;100.00
15229;BME280;7717;47.792;12.076;2023-03-04T01:18:47;96547.53;;;-0.63;100.00
15229;BME280;7717;47.792;12.076;2023-03-04T01:21:12;96539.22;;;-0.81;100.00
15229;BME280;7717;47.792;12.076;2023-03-04T01:23:38;96535.03;;;-0.81;100.00
15229;BME280;7717;47.792;12.076;2023-03-04T01:26:03;96540.13;;;-0.60;100.00
15229;BME280;7717;47.792;12.076;2023-03-04T01:28:29;96540.13;;;-0.60;100.00
15229;BME280;7717;47.792;12.076;2023-03-04T01:30:54;96543.34;;;-0.64;100.00
15229;BME280;7717;47.792;12.076;2023-03-04T01:33:19;96537.16;;;-0.70;100.00
15229;BME280;7717;47.792;12.076;2023-03-04T01:35:45;96529.16;;;-0.81;100.00
15229;BME280;7717;47.792;12.076;2023-03-04T01:38:10;96525.56;;;-0.86;100.00
15229;BME280;7717;47.792;12.076;2023-03-04T01:40:37;96538.69;;;-0.74;100.00
15229;BME280;7717;47.792;12.076;2023-03-04T01:43:03;96525.28;;;-0.93;100.00
15229;BME280;7717;47.792;12.076;2023-03-04T01:45:30;96528.75;;;-0.91;100.00
15229;BME280;7717;47.792;12.076;2023-03-04T01:47:56;96540.13;;;-0.79;100.00
15229;BME280;7717;47.792;12.076;2023-03-04T01:50:33;96536.72;;;-0.80;100.00
15229;BME280;7717;47.792;12.076;2023-03-04T01:53:00;96534.44;;;-0.75;100.00
15229;BME280;7717;47.792;12.076;2023-03-04T01:55:26;96525.13;;;-0.78;100.00
15229;BME280;7717;47.792;12.076;2023-03-04T01:57:53;96512.78;;;-0.91;100.00
15229;BME280;7717;47.792;12.076;2023-03-04T02:00:21;96520.25;;;-0.93;100.00
15229;BME280;7717;47.792;12.076;2023-03-04T02:02:49;96517.66;;;-0.94;100.00
15229;BME280;7717;47.792;12.076;2023-03-04T02:05:15;96511.09;;;-0.92;100.00
15229;BME280;7717;47.792;12.076;2023-03-04T02:07:41;96498.88;;;-1.02;100.00
15229;BME280;7717;47.792;12.076;2023-03-04T02:10:08;96510.00;;;-0.97;100.00
15229;BME280;7717;47.792;12.076;2023-03-04T02:12:34;96508.22;;;-1.00;100.00
15229;BME280;7717;47.792;12.076;2023-03-04T02:14:59;96505.66;;;-1.01;100.00
15229;BME280;7717;47.792;12.076;2023-03-04T02:17:25;96508.50;;;-0.94;100.00
15229;BME280;7717;47.792;12.076;2023-03-04T02:20:14;96500.56;;;-1.03;100.00
15229;BME280;7717;47.792;12.076;2023-03-04T02:22:50;96498.66;;;-1.27;100.00
15229;BME280;7717;47.792;12.076;2023-03-04T02:25:23;96499.50;;;-1.26;100.00
15229;BME280;7717;47.792;12.076;2023-03-04T02:27:52;96497.88;;;-1.43;100.00
15229;BME280;7717;47.792;12.076;2023-03-04T02:30:20;96498.28;;;-1.52;100.00
15229;BME280;7717;47.792;12.076;2023-03-04T02:32:45;96491.47;;;-1.37;100.00
15229;BME280;7717;47.792;12.076;2023-03-04T02:35:17;96488.75;;;-1.23;100.00
15229;BME280;7717;47.792;12.076;2023-03-04T02:37:43;96477.75;;;-1.25;100.00
15229;BME280;7717;47.792;12.076;2023-03-04T02:40:30;96489.00;;;-1.17;100.00
15229;BME280;7717;47.792;12.076;2023-03-04T02:42:58;96492.53;;;-1.14;100.00
15229;BME280;7717;47.792;12.076;2023-03-04T02:45:44;96489.53;;;-1.24;100.00
15229;BME280;7717;47.792;12.076;2023-03-04T02:48:11;96487.72;;;-1.27;100.00
15229;BME280;7717;47.792;12.076;2023-03-04T02:50:44;96482.47;;;-1.32;100.00
15229;BME280;7717;47.792;12.076;2023-03-04T02:53:10;96484.56;;;-1.41;100.00
15229;BME280;7717;47.792;12.076;2023-03-04T02:55:36;96487.88;;;-1.42;100.00
15229;BME280;7717;47.792;12.076;2023-03-04T02:58:02;96483.72;;;-1.41;100.00
15229;BME280;7717;47.792;12.076;2023-03-04T03:00:27;96483.94;;;-1.37;100.00
15229;BME280;7717;47.792;12.076;2023-03-04T03:02:54;96475.41;;;-1.40;100.00
15229;BME280;7717;47.792;12.076;2023-03-04T03:05:22;96482.13;;;-1.39;100.00
15229;BME280;7717;47.792;12.076;2023-03-04T03:07:48;96475.34;;;-1.42;100.00
15229;BME280;7717;47.792;12.076;2023-03-04T03:10:13;96478.69;;;-1.41;100.00
15229;BME280;7717;47.792;12.076;2023-03-04T03:12:39;96478.00;;;-1.39;100.00
15229;BME280;7717;47.792;12.076;2023-03-04T03:15:05;96474.75;;;-1.36;100.00
15229;BME280;7717;47.792;12.076;2023-03-04T03:17:30;96474.94;;;-1.32;100.00
15229;BME280;7717;47.792;12.076;2023-03-04T03:19:56;96479.34;;;-1.46;100.00
15229;BME280;7717;47.792;12.076;2023-03-04T03:22:21;96473.09;;;-1.54;100.00
15229;BME280;7717;47.792;12.076;2023-03-04T03:24:46;96481.13;;;-1.61;100.00
15229;BME280;7717;47.792;12.076;2023-03-04T03:27:12;96474.75;;;-1.54;100.00
15229;BME280;7717;47.792;12.076;2023-03-04T03:29:37;96474.84;;;-1.53;100.00
15229;BME280;7717;47.792;12.076;2023-03-04T03:32:02;96476.97;;;-1.60;100.00
15229;BME280;7717;47.792;12.076;2023-03-04T03:34:28;96475.91;;;-1.66;100.00
15229;BME280;7717;47.792;12.076;2023-03-04T03:36:54;96468.78;;;-1.56;100.00
15229;BME280;7717;47.792;12.076;2023-03-04T03:39:20;96476.31;;;-1.38;100.00
15229;BME280;7717;47.792;12.076;2023-03-04T03:41:45;96463.22;;;-1.51;100.00
15229;BME280;7717;47.792;12.076;2023-03-04T03:44:10;96470.81;;;-1.49;100.00
15229;BME280;7717;47.792;12.076;2023-03-04T03:46:36;96481.00;;;-1.46;100.00
15229;BME280;7717;47.792;12.076;2023-03-04T03:49:01;96468.50;;;-1.45;100.00
15229;BME280;7717;47.792;12.076;2023-03-04T03:51:26;96483.59;;;-1.63;100.00
15229;BME280;7717;47.792;12.076;2023-03-04T03:53:52;96482.13;;;-1.75;100.00
15229;BME280;7717;47.792;12.076;2023-03-04T03:56:17;96477.41;;;-1.69;100.00
15229;BME280;7717;47.792;12.076;2023-03-04T03:58:42;96482.44;;;-1.51;100.00
15229;BME280;7717;47.792;12.076;2023-03-04T04:01:08;96489.09;;;-1.34;100.00
15229;BME280;7717;47.792;12.076;2023-03-04T04:03:34;96487.56;;;-1.30;100.00
15229;BME280;7717;47.792;12.076;2023-03-04T04:05:59;96490.59;;;-1.19;100.00
15229;BME280;7717;47.792;12.076;2023-03-04T04:08:24;96478.50;;;-1.09;100.00
15229;BME280;7717;47.792;12.076;2023-03-04T04:10:50;96482.06;;;-0.85;100.00
15229;BME280;7717;47.792;12.076;2023-03-04T04:13:15;96489.94;;;-0.78;100.00
15229;BME280;7717;47.792;12.076;2023-03-04T04:15:41;96488.00;;;-0.83;100.00
15229;BME280;7717;47.792;12.076;2023-03-04T04:18:06;96491.91;;;-0.70;100.00
15229;BME280;7717;47.792;12.076;2023-03-04T04:20:32;96481.53;;;-0.59;100.00
15229;BME280;7717;47.792;12.076;2023-03-04T04:22:58;96477.75;;;-0.49;100.00
15229;BME280;7717;47.792;12.076;2023-03-04T04:25:23;96481.59;;;-0.38;100.00
15229;BME280;7717;47.792;12.076;2023-03-04T04:27:48;96477.22;;;-0.42;100.00
15229;BME280;7717;47.792;12.076;2023-03-04T04:30:14;96479.94;;;-0.37;100.00
15229;BME280;7717;47.792;12.076;2023-03-04T04:32:39;96481.72;;;-0.34;100.00
15229;BME280;7717;47.792;12.076;2023-03-04T04:35:05;96476.38;;;-0.42;100.00
15229;BME280;7717;47.792;12.076;2023-03-04T04:37:31;96483.69;;;-0.27;100.00
15229;BME280;7717;47.792;12.076;2023-03-04T04:39:56;96480.28;;;-0.29;100.00
15229;BME280;7717;47.792;12.076;2023-03-04T04:42:22;96483.94;;;-0.42;100.00
15229;BME280;7717;47.792;12.076;2023-03-04T04:44:48;96480.00;;;-0.35;100.00
15229;BME280;7717;47.792;12.076;2023-03-04T04:47:13;96481.72;;;-0.34;100.00
15229;BME280;7717;47.792;12.076;2023-03-04T04:49:38;96481.50;;;-0.39;100.00
15229;BME280;7717;47.792;12.076;2023-03-04T04:52:04;96478.91;;;-0.42;100.00
15229;BME280;7717;47.792;12.076;2023-03-04T04:54:29;96479.41;;;-0.49;100.00
15229;BME280;7717;47.792;12.076;2023-03-04T04:56:55;96481.41;;;-0.62;100.00
15229;BME280;7717;47.792;12.076;2023-03-04T04:59:20;96476.38;;;-0.62;100.00
15229;BME280;7717;47.792;12.076;2023-03-04T05:01:46;96483.28;;;-0.58;100.00
15229;BME280;7717;47.792;12.076;2023-03-04T05:04:11;96484.16;;;-0.75;100.00
15229;BME280;7717;47.792;12.076;2023-03-04T05:06:37;96476.56;;;-0.77;100.00
15229;BME280;7717;47.792;12.076;2023-03-04T05:09:02;96475.72;;;-0.77;100.00
15229;BME280;7717;47.792;12.076;2023-03-04T05:11:28;96469.09;;;-0.75;100.00
15229;BME280;7717;47.792;12.076;2023-03-04T05:13:54;96468.88;;;-0.80;100.00
15229;BME280;7717;47.792;12.076;2023-03-04T05:16:19;96481.22;;;-0.66;100.00
15229;BME280;7717;47.792;12.076;2023-03-04T05:18:45;96481.94;;;-0.49;100.00
15229;BME280;7717;47.792;12.076;2023-03-04T05:21:10;96482.66;;;-0.52;100.00
15229;BME280;7717;47.792;12.076;2023-03-04T05:23:38;96471.97;;;-0.27;100.00
15229;BME280;7717;47.792;12.076;2023-03-04T05:26:05;96474.41;;;-0.09;100.00
15229;BME280;7717;47.792;12.076;2023-03-04T05:28:32;96474.66;;;-0.03;100.00
15229;BME280;7717;47.792;12.076;2023-03-04T05:30:57;96475.63;;;0.01;100.00
15229;BME280;7717;47.792;12.076;2023-03-04T05:33:23;96484.16;;;0.05;100.00
15229;BME280;7717;47.792;12.076;2023-03-04T05:35:48;96483.03;;;0.17;100.00
15229;BME280;7717;47.792;12.076;2023-03-04T05:38:16;96485.22;;;0.31;100.00
15229;BME280;7717;47.792;12.076;2023-03-04T05:40:43;96477.78;;;0.34;100.00
15229;BME280;7717;47.792;12.076;2023-03-04T05:43:09;96483.13;;;0.42;100.00
15229;BME280;7717;47.792;12.076;2023-03-04T05:45:35;96477.44;;;0.46;100.00
15229;BME280;7717;47.792;12.076;2023-03-04T05:48:01;96486.91;;;0.53;100.00
15229;BME280;7717;47.792;12.076;2023-03-04T05:50:27;96487.78;;;0.32;100.00
15229;BME280;7717;47.792;12.076;2023-03-04T05:52:53;96472.41;;;0.04;100.00
15229;BME280;7717;47.792;12.076;2023-03-04T05:55:19;96484.66;;;0.17;100.00
15229;BME280;7717;47.792;12.076;2023-03-04T05:57:45;96488.50;;;0.28;100.00
15229;BME280;7717;47.792;12.076;2023-03-04T06:00:12;96499.31;;;0.48;100.00
15229;BME280;7717;47.792;12.076;2023-03-04T06:02:39;96495.19;;;0.49;100.00
15229;BME280;7717;47.792;12.076;2023-03-04T06:05:07;96500.44;;;0.55;100.00
15229;BME280;7717;47.792;12.076;2023-03-04T06:07:33;96498.63;;;0.30;100.00
15229;BME280;7717;47.792;12.076;2023-03-04T06:09:58;96497.00;;;0.11;100.00
15229;BME280;7717;47.792;12.076;2023-03-04T06:12:23;96506.72;;;0.23;100.00
15229;BME280;7717;47.792;12.076;2023-03-04T06:14:49;96515.19;;;0.25;100.00
15229;BME280;7717;47.792;12.076;2023-03-04T06:17:15;96515.44;;;0.31;100.00
15229;BME280;7717;47.792;12.076;2023-03-04T06:19:40;96510.28;;;0.49;100.00
15229;BME280;7717;47.792;12.076;2023-03-04T06:22:09;96516.22;;;0.72;100.00
15229;BME280;7717;47.792;12.076;2023-03-04T06:24:35;96523.84;;;0.52;100.00
15229;BME280;7717;47.792;12.076;2023-03-04T06:27:01;96528.13;;;0.76;100.00
15229;BME280;7717;47.792;12.076;2023-03-04T06:29:26;96525.38;;;0.70;100.00
15229;BME280;7717;47.792;12.076;2023-03-04T06:31:52;96522.34;;;0.79;100.00
15229;BME280;7717;47.792;12.076;2023-03-04T06:34:17;96535.75;;;0.78;100.00
15229;BME280;7717;47.792;12.076;2023-03-04T06:36:43;96528.81;;;0.72;100.00
15229;BME280;7717;47.792;12.076;2023-03-04T06:39:08;96533.94;;;0.96;100.00
15229;BME280;7717;47.792;12.076;2023-03-04T06:41:34;96531.81;;;1.07;100.00
15229;BME280;7717;47.792;12.076;2023-03-04T06:44:00;96535.53;;;1.17;100.00
15229;BME280;7717;47.792;12.076;2023-03-04T06:46:25;96542.25;;;1.16;100.00
15229;BME280;7717;47.792;12.076;2023-03-04T06:48:51;96533.38;;;1.26;100.00
15229;BME280;7717;47.792;12.076;2023-03-04T06:51:16;96535.28;;;1.56;100.00
15229;BME280;7717;47.792;12.076;2023-03-04T06:53:42;96538.03;;;1.62;100.00
15229;BME280;7717;47.792;12.076;2023-03-04T06:56:09;96538.13;;;1.65;100.00
15229;BME280;7717;47.792;12.076;2023-03-04T06:58:35;96538.34;;;1.71;100.00
15229;BME280;7717;47.792;12.076;2023-03-04T07:01:22;96543.94;;;1.87;100.00
15229;BME280;7717;47.792;12.076;2023-03-04T07:03:49;96538.22;;;1.91;100.00
15229;BME280;7717;47.792;12.076;2023-03-04T07:06:18;96540.00;;;1.95;100.00
15229;BME280;7717;47.792;12.076;2023-03-04T07:08:44;96540.38;;;2.06;100.00
15229;BME280;7717;47.792;12.076;2023-03-04T07:11:10;96532.66;;;2.01;100.00
15229;BME280;7717;47.792;12.076;2023-03-04T07:13:35;96530.50;;;2.12;100.00
15229;BME280;7717;47.792;12.076;2023-03-04T07:16:13;96538.34;;;2.20;100.00
15229;BME280;7717;47.792;12.076;2023-03-04T07:18:40;96542.66;;;2.49;100.00
15229;BME280;7717;47.792;12.076;2023-03-04T07:21:06;96539.88;;;2.67;100.00
15229;BME280;7717;47.792;12.076;2023-03-04T07:23:32;96534.06;;;2.70;100.00
15229;BME280;7717;47.792;12.076;2023-03-04T07:25:57;96523.34;;;2.77;100.00
15229;BME280;7717;47.792;12.076;2023-03-04T07:28:23;96545.09;;;3.28;100.00
15229;BME280;7717;47.792;12.076;2023-03-04T07:30:48;96536.66;;;3.28;100.00
15229;BME280;7717;47.792;12.076;2023-03-04T07:33:14;96542.41;;;3.52;100.00
15229;BME280;7717;47.792;12.076;2023-03-04T07:35:39;96542.03;;;3.69;100.00
15229;BME280;7717;47.792;12.076;2023-03-04T07:38:05;96535.72;;;3.85;100.00
15229;BME280;7717;47.792;12.076;2023-03-04T07:40:30;96548.94;;;3.44;100.00
15229;BME280;7717;47.792;12.076;2023-03-04T07:42:56;96533.84;;;3.47;100.00
15229;BME280;7717;47.792;12.076;2023-03-04T07:45:22;96545.44;;;4.01;100.00
15229;BME280;7717;47.792;12.076;2023-03-04T07:47:48;96541.22;;;4.33;100.00
15229;BME280;7717;47.792;12.076;2023-03-04T07:50:14;96542.91;;;4.01;100.00
15229;BME280;7717;47.792;12.076;2023-03-04T07:52:42;96543.19;;;3.80;100.00
15229;BME280;7717;47.792;12.076;2023-03-04T07:55:09;96540.66;;;4.12;100.00
15229;BME280;7717;47.792;12.076;2023-03-04T07:57:34;96537.69;;;4.27;100.00
15229;BME280;7717;47.792;12.076;2023-03-04T07:59:59;96536.59;;;4.19;100.00
15229;BME280;7717;47.792;12.076;2023-03-04T08:02:25;96532.97;;;4.41;100.00
15229;BME280;7717;47.792;12.076;2023-03-04T08:04:50;96542.25;;;4.08;100.00
15229;BME280;7717;47.792;12.076;2023-03-04T08:07:16;96545.19;;;4.24;100.00
15229;BME280;7717;47.792;12.076;2023-03-04T08:09:41;96530.00;;;4.24;100.00
15229;BME280;7717;47.792;12.076;2023-03-04T08:12:07;96530.03;;;4.60;100.00
15229;BME280;7717;47.792;12.076;2023-03-04T08:14:33;96527.28;;;5.24;100.00
15229;BME280;7717;47.792;12.076;2023-03-04T08:16:58;96530.97;;;5.38;100.00
15229;BME280;7717;47.792;12.076;2023-03-04T08:19:24;96523.63;;;5.95;100.00
15229;BME280;7717;47.792;12.076;2023-03-04T08:21:49;96524.81;;;6.12;100.00
15229;BME280;7717;47.792;12.076;2023-03-04T08:24:15;96517.50;;;6.31;100.00
15229;BME280;7717;47.792;12.076;2023-03-04T08:26:43;96523.22;;;6.18;100.00
15229;BME280;7717;47.792;12.076;2023-03-04T08:29:13;96528.78;;;5.98;100.00
15229;BME280;7717;47.792;12.076;2023-03-04T08:31:38;96530.09;;;5.79;100.00
15229;BME280;7717;47.792;12.076;2023-03-04T08:34:05;96524.16;;;5.79;100.00
15229;BME280;7717;47.792;12.076;2023-03-04T08:36:31;96533.34;;;6.15;100.00
15229;BME280;7717;47.792;12.076;2023-03-04T08:38:57;96523.53;;;5.90;100.00
15229;BME280;7717;47.792;12.076;2023-03-04T08:41:22;96531.66;;;6.17;100.00
15229;BME280;7717;47.792;12.076;2023-03-04T08:43:50;96527.00;;;5.94;100.00
15229;BME280;7717;47.792;12.076;2023-03-04T08:46:15;96529.59;;;6.43;100.00
15229;BME280;7717;47.792;12.076;2023-03-04T08:48:41;96519.94;;;6.74;100.00
15229;BME280;7717;47.792;12.076;2023-03-04T08:51:08;96528.91;;;7.07;100.00
15229;BME280;7717;47.792;12.076;2023-03-04T08:53:34;96518.78;;;7.10;100.00
15229;BME280;7717;47.792;12.076;2023-03-04T08:56:00;96517.41;;;7.35;100.00
15229;BME280;7717;47.792;12.076;2023-03-04T08:58:25;96517.06;;;7.10;100.00
15229;BME280;7717;47.792;12.076;2023-03-04T09:00:51;96523.06;;;7.15;100.00
15229;BME280;7717;47.792;12.076;2023-03-04T09:03:17;96528.28;;;7.25;100.00
15229;BME280;7717;47.792;12.076;2023-03-04T09:05:45;96525.06;;;7.36;100.00
15229;BME280;7717;47.792;12.076;2023-03-04T09:08:11;96527.50;;;7.29;100.00
15229;BME280;7717;47.792;12.076;2023-03-04T09:10:36;96530.94;;;7.32;100.00
15229;BME280;7717;47.792;12.076;2023-03-04T09:13:02;96515.19;;;7.60;100.00
15229;BME280;7717;47.792;12.076;2023-03-04T09:15:27;96516.94;;;7.65;100.00
15229;BME280;7717;47.792;12.076;2023-03-04T09:17:52;96513.16;;;8.06;100.00
15229;BME280;7717;47.792;12.076;2023-03-04T09:20:18;96507.03;;;8.79;100.00
15229;BME280;7717;47.792;12.076;2023-03-04T09:22:45;96497.72;;;8.84;100.00
15229;BME280;7717;47.792;12.076;2023-03-04T09:25:12;96471.88;;;10.02;100.00
15229;BME280;7717;47.792;12.076;2023-03-04T09:27:39;96492.22;;;9.73;100.00
15229;BME280;7717;47.792;12.076;2023-03-04T09:30:06;96499.91;;;9.75;100.00
15229;BME280;7717;47.792;12.076;2023-03-04T09:32:32;96493.00;;;9.50;100.00
15229;BME280;7717;47.792;12.076;2023-03-04T09:34:57;96499.13;;;9.89;100.00
15229;BME280;7717;47.792;12.076;2023-03-04T09:37:23;96500.50;;;9.21;100.00
15229;BME280;7717;47.792;12.076;2023-03-04T09:39:48;96506.41;;;9.14;100.00
15229;BME280;7717;47.792;12.076;2023-03-04T09:42:24;96487.72;;;9.16;100.00
15229;BME280;7717;47.792;12.076;2023-03-04T09:44:52;96491.34;;;9.65;100.00
15229;BME280;7717;47.792;12.076;2023-03-04T09:47:20;96488.06;;;10.11;100.00
15229;BME280;7717;47.792;12.076;2023-03-04T09:49:59;96468.50;;;10.09;100.00
15229;BME280;7717;47.792;12.076;2023-03-04T09:52:41;96475.31;;;11.08;100.00
15229;BME280;7717;47.792;12.076;2023-03-04T09:57:52;96445.44;;;10.19;100.00
15229;BME280;7717;47.792;12.076;2023-03-04T10:00:24;96471.97;;;10.53;100.00
15229;BME280;7717;47.792;12.076;2023-03-04T10:05:59;96338.09;;;15.19;88.52
15229;BME280;7717;47.792;12.076;2023-03-04T10:19:33;96393.75;;;13.72;79.76
15229;BME280;7717;47.792;12.076;2023-03-04T10:22:15;96485.06;;;12.34;86.32
15229;BME280;7717;47.792;12.076;2023-03-04T10:24:41;96513.47;;;12.08;90.31
15229;BME280;7717;47.792;12.076;2023-03-04T10:27:13;96514.59;;;11.13;93.01
15229;BME280;7717;47.792;12.076;2023-03-04T10:29:40;96488.16;;;10.88;92.17
15229;BME280;7717;47.792;12.076;2023-03-04T10:32:11;96466.81;;;10.81;89.38
15229;BME280;7717;47.792;12.076;2023-03-04T10:34:38;96441.88;;;11.52;87.50
15229;BME280;7717;47.792;12.076;2023-03-04T10:37:06;96407.22;;;14.47;85.60
15229;BME280;7717;47.792;12.076;2023-03-04T10:39:35;96453.03;;;14.84;87.85
15229;BME280;7717;47.792;12.076;2023-03-04T10:42:09;96403.66;;;14.55;82.92
15229;BME280;7717;47.792;12.076;2023-03-04T10:44:52;96404.69;;;14.45;82.56
15229;BME280;7717;47.792;12.076;2023-03-04T10:47:18;96434.25;;;14.77;85.01
15229;BME280;7717;47.792;12.076;2023-03-04T10:49:52;96399.81;;;13.69;81.09
15229;BME280;7717;47.792;12.076;2023-03-04T10:52:30;96424.44;;;12.21;82.04
15229;BME280;7717;47.792;12.076;2023-03-04T10:54:59;96495.66;;;11.68;87.89
15229;BME280;7717;47.792;12.076;2023-03-04T10:57:39;96418.72;;;11.68;84.24
15229;BME280;7717;47.792;12.076;2023-03-04T11:02:50;96467.63;;;11.09;88.51
15229;BME280;7717;47.792;12.076;2023-03-04T11:07:52;96447.97;;;11.22;90.71
15229;BME280;7717;47.792;12.076;2023-03-04T11:13:00;96431.81;;;10.07;88.26
15229;BME280;7717;47.792;12.076;2023-03-04T11:15:28;96456.63;;;10.50;92.40
15229;BME280;7717;47.792;12.076;2023-03-04T11:18:02;96437.81;;;10.60;90.42
15229;BME280;7717;47.792;12.076;2023-03-04T11:20:55;96392.59;;;10.21;86.23
15229;BME280;7717;47.792;12.076;2023-03-04T11:26:01;96424.19;;;10.57;89.68
15229;BME280;7717;47.792;12.076;2023-03-04T11:31:26;96414.66;;;9.54;88.70
15229;BME280;7717;47.792;12.076;2023-03-04T11:34:04;96421.41;;;9.38;89.50
15229;BME280;7717;47.792;12.076;2023-03-04T11:36:42;96446.25;;;9.85;93.66
15229;BME280;7717;47.792;12.076;2023-03-04T11:39:29;96432.41;;;9.23;90.19
15229;BME280;7717;47.792;12.076;2023-03-04T11:42:06;96423.19;;;9.67;92.18
15229;BME280;7717;47.792;12.076;2023-03-04T11:44:36;96430.91;;;9.82;91.80
15229;BME280;7717;47.792;12.076;2023-03-04T11:52:45;96344.81;;;10.72;84.34
15229;BME280;7717;47.792;12.076;2023-03-04T11:55:39;96398.56;;;10.78;87.39
15229;BME280;7717;47.792;12.076;2023-03-04T12:00:51;96319.25;;;10.51;81.41
15229;BME280;7717;47.792;12.076;2023-03-04T12:06:11;96311.78;;;11.82;81.21
15229;BME280;7717;47.792;12.076;2023-03-04T12:11:50;96236.97;;;14.15;76.96
15229;BME280;7717;47.792;12.076;2023-03-04T12:22:43;96166.66;;;14.99;68.79
15229;BME280;7717;47.792;12.076;2023-03-04T12:33:26;96223.88;;;13.78;72.21
15229;BME280;7717;47.792;12.076;2023-03-04T12:36:01;96294.44;;;14.17;78.29
15229;BME280;7717;47.792;12.076;2023-03-04T12:44:16;96133.13;;;15.71;68.19
15229;BME280;7717;47.792;12.076;2023-03-04T12:47:02;96114.78;;;14.75;66.38
15229;BME280;7717;47.792;12.076;2023-03-04T12:54:51;96196.41;;;17.13;71.88
15229;BME280;7717;47.792;12.076;2023-03-04T12:57:24;96158.69;;;15.82;67.84
15229;BME280;7717;47.792;12.076;2023-03-04T13:07:40;96198.22;;;13.75;69.73
15229;BME280;7717;47.792;12.076;2023-03-04T13:10:12;96277.97;;;13.75;74.53
15229;BME280;7717;47.792;12.076;2023-03-04T13:17:47;96265.47;;;13.50;74.23
15229;BME280;7717;47.792;12.076;2023-03-04T13:20:31;96314.53;;;11.58;76.34
15229;BME280;7717;47.792;12.076;2023-03-04T13:25:39;96310.69;;;12.16;77.89
15229;BME280;7717;47.792;12.076;2023-03-04T13:28:28;96180.50;;;14.06;69.91
15229;BME280;7717;47.792;12.076;2023-03-04T13:35:47;96150.91;;;17.06;70.38
15229;BME280;7717;47.792;12.076;2023-03-04T13:43:43;96088.81;;;16.49;65.82
15229;BME280;7717;47.792;12.076;2023-03-04T13:49:03;96099.97;;;15.21;65.90
15229;BME280;7717;47.792;12.076;2023-03-04T13:51:40;96046.00;;;16.69;63.27
15229;BME280;7717;47.792;12.076;2023-03-04T13:54:20;96149.03;;;16.51;69.69
15229;BME280;7717;47.792;12.076;2023-03-04T14:01:54;96148.03;;;15.60;70.30
15229;BME280;7717;47.792;12.076;2023-03-04T14:05:00;96106.19;;;16.14;66.52
15229;BME280;7717;47.792;12.076;2023-03-04T14:10:23;96101.91;;;16.13;66.31
15229;BME280;7717;47.792;12.076;2023-03-04T14:12:51;96120.34;;;17.72;69.34
15229;BME280;7717;47.792;12.076;2023-03-04T14:15:22;96080.94;;;15.60;65.65
15229;BME280;7717;47.792;12.076;2023-03-04T14:17:51;96138.69;;;15.90;68.98
15229;BME280;7717;47.792;12.076;2023-03-04T14:22:52;96167.66;;;16.94;71.45
15229;BME280;7717;47.792;12.076;2023-03-04T14:27:44;96163.63;;;15.19;70.17
15229;BME280;7717;47.792;12.076;2023-03-04T14:30:29;96080.78;;;14.97;64.49
15229;BME280;7717;47.792;12.076;2023-03-04T14:32:57;96147.81;;;14.97;69.29
15229;BME280;7717;47.792;12.076;2023-03-04T14:35:28;96174.13;;;15.83;71.49
15229;BME280;7717;47.792;12.076;2023-03-04T14:38:02;96111.72;;;14.97;67.10
15229;BME280;7717;47.792;12.076;2023-03-04T14:40:38;96133.31;;;14.51;68.45
15229;BME280;7717;47.792;12.076;2023-03-04T14:43:14;96123.69;;;14.17;67.83
15229;BME280;7717;47.792;12.076;2023-03-04T14:45:42;96168.56;;;14.03;70.24
15229;BME280;7717;47.792;12.076;2023-03-04T14:48:19;96151.06;;;14.65;69.07
15229;BME280;7717;47.792;12.076;2023-03-04T14:50:48;96165.47;;;13.83;70.06
15229;BME280;7717;47.792;12.076;2023-03-04T14:53:17;96131.34;;;13.75;68.59